createdAt,value
2018-11-21T00:00:45.919Z,3.90
2018-11-21T00:03:16.167Z,3.90
2018-11-21T00:05:46.549Z,3.90
2018-11-21T00:08:17.771Z,3.80
2018-11-21T00:10:47.948Z,3.80
2018-11-21T00:13:18.100Z,3.80
2018-11-21T00:15:48.188Z,3.90
2018-11-21T00:18:21.685Z,3.90
2018-11-21T00:20:52.769Z,3.90
2018-11-21T00:23:23.776Z,3.90
2018-11-21T00:25:54.070Z,3.90
2018-11-21T00:28:24.342Z,3.90
2018-11-21T00:30:54.368Z,3.90
2018-11-21T00:33:24.883Z,3.90
2018-11-21T00:35:54.895Z,3.90
2018-11-21T00:38:25.024Z,3.90
2018-11-21T00:40:55.436Z,3.90
2018-11-21T00:43:26.084Z,4.00
2018-11-21T00:45:56.681Z,4.00
2018-11-21T00:48:26.912Z,4.00
2018-11-21T00:50:56.958Z,4.00
2018-11-21T00:53:26.991Z,4.00
2018-11-21T00:55:56.971Z,4.00
2018-11-21T00:58:26.896Z,4.00
2018-11-21T01:00:56.951Z,4.00
2018-11-21T01:03:26.994Z,4.00
2018-11-21T01:05:57.860Z,4.00
2018-11-21T01:08:28.252Z,4.00
2018-11-21T01:10:58.552Z,4.00
2018-11-21T01:13:29.152Z,4.00
2018-11-21T01:15:59.330Z,3.90
2018-11-21T01:18:30.329Z,3.90
2018-11-21T01:21:00.554Z,3.90
2018-11-21T01:23:30.472Z,3.90
2018-11-21T01:26:00.525Z,3.90
2018-11-21T01:28:31.220Z,4.00
2018-11-21T01:31:01.537Z,4.10
2018-11-21T01:33:31.673Z,4.10
2018-11-21T01:36:02.067Z,4.10
2018-11-21T01:38:32.417Z,4.20
2018-11-21T01:41:02.260Z,4.10
2018-11-21T01:43:32.534Z,4.00
2018-11-21T01:46:02.867Z,3.90
2018-11-21T01:48:33.167Z,3.60
2018-11-21T01:51:03.109Z,3.50
2018-11-21T01:53:33.223Z,3.50
2018-11-21T01:56:03.879Z,3.60
2018-11-21T01:58:34.093Z,3.70
2018-11-21T02:01:04.429Z,3.80
2018-11-21T02:03:34.478Z,3.90
2018-11-21T02:06:05.285Z,4.00
2018-11-21T02:08:35.325Z,4.00
2018-11-21T02:11:05.581Z,4.10
2018-11-21T02:13:35.435Z,4.00
2018-11-21T02:16:06.175Z,3.90
2018-11-21T02:18:36.674Z,3.90
2018-11-21T02:21:06.737Z,3.80
2018-11-21T02:23:36.689Z,3.70
2018-11-21T02:26:06.883Z,3.80
2018-11-21T02:28:37.505Z,3.90
2018-11-21T02:31:07.570Z,4.00
2018-11-21T02:33:37.750Z,4.00
2018-11-21T02:36:08.178Z,3.90
2018-11-21T02:38:38.965Z,3.80
2018-11-21T02:41:09.145Z,3.80
2018-11-21T02:43:39.418Z,3.80
2018-11-21T02:46:09.509Z,3.90
2018-11-21T02:48:40.001Z,3.90
2018-11-21T02:51:10.091Z,3.90
2018-11-21T02:53:40.268Z,4.00
2018-11-21T02:56:11.815Z,4.00
2018-11-21T02:58:42.093Z,4.00
2018-11-21T03:01:12.647Z,4.10
2018-11-21T03:03:42.876Z,4.00
2018-11-21T03:06:14.724Z,4.00
2018-11-21T03:08:44.760Z,3.90
2018-11-21T03:11:15.207Z,3.90
2018-11-21T03:13:46.485Z,3.80
2018-11-21T03:16:16.680Z,3.70
2018-11-21T03:18:46.719Z,3.60
2018-11-21T03:21:16.834Z,3.50
2018-11-21T03:23:46.841Z,3.40
2018-11-21T03:26:17.416Z,3.20
2018-11-21T03:28:47.586Z,3.00
2018-11-21T03:31:18.241Z,2.80
2018-11-21T03:33:48.933Z,2.70
2018-11-21T03:36:20.868Z,2.60
2018-11-21T03:38:51.329Z,2.60
2018-11-21T03:41:21.970Z,2.40
2018-11-21T03:43:53.390Z,2.10
2018-11-21T03:46:23.868Z,2.00
2018-11-21T03:48:54.275Z,1.70
2018-11-21T03:51:24.250Z,1.60
2018-11-21T03:53:54.411Z,1.60
2018-11-21T03:56:24.825Z,1.60
2018-11-21T03:58:54.787Z,1.70
2018-11-21T04:01:25.360Z,1.80
2018-11-21T04:03:56.560Z,1.80
2018-11-21T04:06:26.618Z,1.60
2018-11-21T04:08:57.143Z,1.70
2018-11-21T04:11:27.371Z,1.80
2018-11-21T04:13:57.571Z,1.80
2018-11-21T04:16:27.742Z,1.90
2018-11-21T04:18:58.117Z,2.00
2018-11-21T04:21:28.418Z,1.90
2018-11-21T04:23:58.683Z,1.90
2018-11-21T04:26:28.682Z,1.80
2018-11-21T04:28:58.692Z,1.70
2018-11-21T04:31:28.732Z,1.60
2018-11-21T04:33:58.632Z,1.50
2018-11-21T04:36:29.284Z,1.40
2018-11-21T04:39:00.023Z,1.30
2018-11-21T04:41:30.276Z,1.40
2018-11-21T04:44:00.593Z,1.30
2018-11-21T04:46:30.680Z,1.30
2018-11-21T04:49:00.809Z,1.20
2018-11-21T04:51:31.132Z,1.20
2018-11-21T04:54:01.281Z,1.20
2018-11-21T04:56:31.585Z,1.20
2018-11-21T04:59:01.635Z,1.20
2018-11-21T05:01:32.457Z,1.20
2018-11-21T05:04:02.597Z,1.10
2018-11-21T05:06:32.771Z,1.10
2018-11-21T05:09:02.900Z,1.10
2018-11-21T05:11:32.945Z,1.10
2018-11-21T05:14:03.130Z,1.10
2018-11-21T05:16:33.061Z,1.10
2018-11-21T05:19:03.119Z,1.10
2018-11-21T05:21:33.291Z,1.00
2018-11-21T05:24:03.395Z,0.80
2018-11-21T05:26:33.732Z,0.70
2018-11-21T05:29:03.792Z,0.60
2018-11-21T05:31:33.851Z,0.60
2018-11-21T05:34:04.826Z,0.50
2018-11-21T05:36:34.736Z,0.50
2018-11-21T05:39:08.784Z,0.40
2018-11-21T05:41:39.509Z,0.40
2018-11-21T05:44:10.157Z,0.40
2018-11-21T05:46:40.276Z,0.40
2018-11-21T05:49:10.230Z,0.40
2018-11-21T05:51:40.326Z,0.40
2018-11-21T05:54:10.549Z,0.30
2018-11-21T05:56:40.500Z,0.40
2018-11-21T05:59:10.860Z,0.50
2018-11-21T06:01:41.027Z,0.70
2018-11-21T06:04:11.484Z,0.70
2018-11-21T06:06:41.548Z,0.70
2018-11-21T06:09:13.314Z,0.50
2018-11-21T06:11:43.633Z,0.40
2018-11-21T06:14:13.734Z,0.30
2018-11-21T06:16:43.611Z,0.20
2018-11-21T06:19:14.148Z,0.10
2018-11-21T06:21:44.205Z,0.00
2018-11-21T06:24:14.139Z,-0.10
2018-11-21T06:26:44.032Z,-0.20
2018-11-21T06:29:14.141Z,-0.20
2018-11-21T06:31:44.184Z,-0.20
2018-11-21T06:34:14.213Z,-0.20
2018-11-21T06:36:44.636Z,-0.20
2018-11-21T06:39:14.580Z,-0.20
2018-11-21T06:41:44.526Z,-0.30
2018-11-21T06:44:14.468Z,-0.30
2018-11-21T06:46:44.727Z,-0.40
2018-11-21T06:49:15.257Z,-0.30
2018-11-21T06:51:45.203Z,-0.10
2018-11-21T06:54:15.661Z,-0.20
2018-11-21T06:56:46.206Z,-0.20
2018-11-21T06:59:16.637Z,-0.20
2018-11-21T07:01:46.555Z,-0.30
2018-11-21T07:04:16.961Z,-0.40
2018-11-21T07:06:47.373Z,-0.40
2018-11-21T07:09:18.079Z,-0.50
2018-11-21T07:11:48.827Z,-0.60
2018-11-21T07:14:19.451Z,-0.60
2018-11-21T07:16:49.361Z,-0.70
2018-11-21T07:19:20.066Z,-0.70
2018-11-21T07:21:50.264Z,-0.80
2018-11-21T07:24:26.180Z,-0.80
2018-11-21T07:26:51.408Z,-0.70
2018-11-21T07:29:21.854Z,-0.70
2018-11-21T07:31:52.357Z,-0.80
2018-11-21T07:34:22.378Z,-0.80
2018-11-21T07:36:52.892Z,-0.80
2018-11-21T07:39:23.668Z,-0.80
2018-11-21T07:41:53.310Z,-0.80
2018-11-21T07:44:23.327Z,-0.90
2018-11-21T07:46:53.457Z,-0.90
2018-11-21T07:49:25.187Z,-0.80
2018-11-21T07:51:55.503Z,-0.90
2018-11-21T07:54:26.087Z,-0.90
2018-11-21T07:57:36.589Z,-0.90
2018-11-21T08:00:52.950Z,-0.80
2018-11-21T08:03:24.519Z,-0.70
2018-11-21T08:05:59.715Z,-0.60
2018-11-21T08:08:47.526Z,-0.50
2018-11-21T08:11:45.944Z,-0.40
2018-11-21T08:14:52.308Z,-0.20
2018-11-21T08:17:53.782Z,0.00
2018-11-21T08:20:41.891Z,0.30
2018-11-21T08:23:30.288Z,0.60
2018-11-21T08:26:19.602Z,0.80
2018-11-21T08:28:49.500Z,0.80
2018-11-21T08:31:19.474Z,0.80
2018-11-21T08:33:49.593Z,0.80
2018-11-21T08:36:20.727Z,0.80
2018-11-21T08:38:50.800Z,0.80
2018-11-21T08:41:20.821Z,0.80
2018-11-21T08:43:51.062Z,0.80
2018-11-21T08:46:21.084Z,0.90
2018-11-21T08:48:51.072Z,0.90
2018-11-21T08:51:21.712Z,1.00
2018-11-21T08:53:51.885Z,1.20
2018-11-21T08:56:22.302Z,1.40
2018-11-21T08:58:52.338Z,1.50
2018-11-21T09:01:22.738Z,1.60
2018-11-21T09:03:52.648Z,1.70
2018-11-21T09:06:22.942Z,1.80
2018-11-21T09:08:53.117Z,1.90
2018-11-21T09:11:23.059Z,2.00
2018-11-21T09:13:53.388Z,2.00
2018-11-21T09:16:23.218Z,2.10
2018-11-21T09:18:53.268Z,2.30
2018-11-21T09:21:23.601Z,2.40
2018-11-21T09:23:54.343Z,2.50
2018-11-21T09:26:24.813Z,2.60
2018-11-21T09:28:54.867Z,2.70
2018-11-21T09:31:24.944Z,2.80
2018-11-21T09:33:55.131Z,2.90
2018-11-21T09:36:25.347Z,3.00
2018-11-21T09:38:55.513Z,3.10
2018-11-21T09:41:25.729Z,3.10
2018-11-21T09:43:55.719Z,3.20
2018-11-21T09:46:25.725Z,3.30
2018-11-21T09:48:56.175Z,3.40
2018-11-21T09:51:26.458Z,3.50
2018-11-21T09:53:56.773Z,3.50
2018-11-21T09:56:26.997Z,3.60
2018-11-21T09:58:57.147Z,3.70
2018-11-21T10:02:10.735Z,3.80
2018-11-21T10:04:41.172Z,3.80
2018-11-21T10:07:11.623Z,4.00
2018-11-21T10:09:44.338Z,4.00
2018-11-21T10:12:16.114Z,4.10
2018-11-21T10:14:47.329Z,4.30
2018-11-21T10:17:17.970Z,4.40
2018-11-21T10:19:48.332Z,4.60
2018-11-21T10:22:18.524Z,4.70
2018-11-21T10:24:48.866Z,4.70
2018-11-21T10:27:19.186Z,4.90
2018-11-21T10:29:50.283Z,5.00
2018-11-21T10:32:20.614Z,5.10
2018-11-21T10:34:50.783Z,5.20
2018-11-21T10:37:20.791Z,5.40
2018-11-21T10:39:51.598Z,5.50
2018-11-21T10:42:22.040Z,5.40
2018-11-21T10:44:52.324Z,5.40
2018-11-21T10:47:22.496Z,5.30
2018-11-21T10:49:52.785Z,5.40
2018-11-21T10:52:22.692Z,5.50
2018-11-21T10:54:53.179Z,5.60
2018-11-21T10:57:23.457Z,5.60
2018-11-21T10:59:53.584Z,5.60
2018-11-21T11:02:46.317Z,5.70
2018-11-21T11:05:45.239Z,5.70
2018-11-21T11:08:50.266Z,5.80
2018-11-21T11:11:52.419Z,5.90
2018-11-21T11:14:53.739Z,5.90
2018-11-21T11:17:46.311Z,6.10
2018-11-21T11:20:30.417Z,6.10
2018-11-21T11:23:18.411Z,6.30
2018-11-21T11:26:05.999Z,6.40
2018-11-21T11:28:53.885Z,6.40
2018-11-21T11:31:49.919Z,6.50
2018-11-21T11:34:57.440Z,6.60
2018-11-21T11:37:46.737Z,6.70
2018-11-21T11:40:36.348Z,6.70
2018-11-21T11:43:31.789Z,6.70
2018-11-21T11:46:29.892Z,6.80
2018-11-21T11:49:34.475Z,6.80
2018-11-21T11:52:22.947Z,7.00
2018-11-21T11:55:21.479Z,6.90
2018-11-21T11:58:16.539Z,7.00
2018-11-21T12:00:58.039Z,7.30
2018-11-21T12:03:57.846Z,7.20
2018-11-21T12:06:49.126Z,7.20
2018-11-21T12:09:38.425Z,7.30
2018-11-21T12:12:26.469Z,7.50
2018-11-21T12:15:14.623Z,7.60
2018-11-21T12:18:02.482Z,7.50
2018-11-21T12:21:00.750Z,7.70
2018-11-21T12:23:59.072Z,8.00
2018-11-21T12:26:46.958Z,8.40
2018-11-21T12:29:35.448Z,8.80
2018-11-21T12:32:23.674Z,8.70
2018-11-21T12:35:11.918Z,8.60
2018-11-21T12:38:00.016Z,8.70
2018-11-21T12:40:46.962Z,8.90
2018-11-21T12:43:50.993Z,8.90
2018-11-21T12:46:43.412Z,8.90
2018-11-21T12:49:39.108Z,8.40
2018-11-21T12:52:29.691Z,8.10
2018-11-21T12:55:18.412Z,7.80
2018-11-21T12:58:07.945Z,7.90
2018-11-21T13:00:57.162Z,7.80
2018-11-21T13:03:55.314Z,7.60
2018-11-21T13:07:02.625Z,7.60
2018-11-21T13:09:58.791Z,8.20
2018-11-21T13:12:48.198Z,8.10
2018-11-21T13:15:43.427Z,8.10
2018-11-21T13:18:39.007Z,8.10
2018-11-21T13:21:43.114Z,8.10
2018-11-21T13:24:42.308Z,8.00
2018-11-21T13:27:31.677Z,7.70
2018-11-21T13:30:19.260Z,7.50
2018-11-21T13:33:07.355Z,7.70
2018-11-21T13:35:57.227Z,7.40
2018-11-21T13:38:49.487Z,7.30
2018-11-21T13:41:37.678Z,7.30
2018-11-21T13:44:25.582Z,7.20
2018-11-21T13:47:20.428Z,7.10
2018-11-21T13:50:09.050Z,7.10
2018-11-21T13:52:57.436Z,7.00
2018-11-21T13:55:27.815Z,7.00
2018-11-21T13:57:59.107Z,7.00
